sensor_id;sensor_type;location;lat;lon;timestamp;pressure;altitude;pressure_sealevel;temperature;humidity
40940;BME280;26666;50.156;7.700;2022-11-20T00:02:41;100054.34;;;4.64;100.00
40940;BME280;26666;50.156;7.700;2022-11-20T00:07:43;100052.56;;;4.65;100.00
40940;BME280;26666;50.156;7.700;2022-11-20T00:12:44;100043.06;;;4.37;100.00
40940;BME280;26666;50.156;7.700;2022-11-20T00:17:46;100044.22;;;4.32;100.00
40940;BME280;26666;50.156;7.700;2022-11-20T00:22:47;100039.88;;;4.46;100.00
40940;BME280;26666;50.156;7.700;2022-11-20T00:27:49;100041.91;;;4.68;100.00
40940;BME280;26666;50.156;7.700;2022-11-20T00:32:50;100033.91;;;4.44;100.00
40940;BME280;26666;50.156;7.700;2022-11-20T00:37:51;100032.59;;;4.37;100.00
40940;BME280;26666;50.156;7.700;2022-11-20T00:42:53;100034.81;;;4.43;100.00
40940;BME280;26666;50.156;7.700;2022-11-20T00:47:54;100046.59;;;4.63;100.00
40940;BME280;26666;50.156;7.700;2022-11-20T00:52:56;100042.81;;;4.67;100.00
40940;BME280;26666;50.156;7.700;2022-11-20T00:57:57;100032.59;;;4.77;100.00
40940;BME280;26666;50.156;7.700;2022-11-20T01:03:04;100028.63;;;4.84;100.00
40940;BME280;26666;50.156;7.700;2022-11-20T01:08:06;100032.31;;;4.81;100.00
40940;BME280;26666;50.156;7.700;2022-11-20T01:13:07;100031.97;;;4.73;100.00
40940;BME280;26666;50.156;7.700;2022-11-20T01:18:08;100032.59;;;4.77;100.00
40940;BME280;26666;50.156;7.700;2022-11-20T01:23:10;100019.94;;;4.83;100.00
40940;BME280;26666;50.156;7.700;2022-11-20T01:28:11;100028.41;;;4.74;100.00
40940;BME280;26666;50.156;7.700;2022-11-20T01:33:13;100034.25;;;4.65;100.00
40940;BME280;26666;50.156;7.700;2022-11-20T01:38:15;100022.22;;;4.62;100.00
40940;BME280;26666;50.156;7.700;2022-11-20T01:43:18;100017.09;;;4.73;100.00
40940;BME280;26666;50.156;7.700;2022-11-20T01:48:22;100016.81;;;4.91;100.00
40940;BME280;26666;50.156;7.700;2022-11-20T01:53:28;100010.44;;;5.08;100.00
40940;BME280;26666;50.156;7.700;2022-11-20T01:58:33;100016.19;;;5.13;100.00
40940;BME280;26666;50.156;7.700;2022-11-20T02:03:36;100008.66;;;5.08;100.00
40940;BME280;26666;50.156;7.700;2022-11-20T02:08:38;100009.78;;;5.17;100.00
40940;BME280;26666;50.156;7.700;2022-11-20T02:13:40;100017.25;;;5.10;100.00
40940;BME280;26666;50.156;7.700;2022-11-20T02:18:43;100008.94;;;5.04;100.00
40940;BME280;26666;50.156;7.700;2022-11-20T02:28:53;100004.47;;;5.19;100.00
40940;BME280;26666;50.156;7.700;2022-11-20T02:33:58;100006.13;;;5.32;100.00
40940;BME280;26666;50.156;7.700;2022-11-20T02:39:00;100004.75;;;5.27;100.00
40940;BME280;26666;50.156;7.700;2022-11-20T02:44:01;100006.88;;;5.22;100.00
40940;BME280;26666;50.156;7.700;2022-11-20T02:49:04;99994.63;;;5.22;100.00
40940;BME280;26666;50.156;7.700;2022-11-20T02:54:06;99995.44;;;5.23;100.00
40940;BME280;26666;50.156;7.700;2022-11-20T02:59:07;99993.66;;;5.23;100.00
40940;BME280;26666;50.156;7.700;2022-11-20T03:04:09;99993.13;;;5.05;100.00
40940;BME280;26666;50.156;7.700;2022-11-20T03:09:11;99987.88;;;4.54;100.00
40940;BME280;26666;50.156;7.700;2022-11-20T03:14:12;99988.63;;;4.82;100.00
40940;BME280;26666;50.156;7.700;2022-11-20T03:19:14;99981.84;;;4.79;100.00
40940;BME280;26666;50.156;7.700;2022-11-20T03:24:16;99973.66;;;4.71;100.00
40940;BME280;26666;50.156;7.700;2022-11-20T03:29:17;99965.28;;;4.66;100.00
40940;BME280;26666;50.156;7.700;2022-11-20T03:34:19;99971.03;;;4.71;100.00
40940;BME280;26666;50.156;7.700;2022-11-20T03:39:21;99962.75;;;4.64;100.00
40940;BME280;26666;50.156;7.700;2022-11-20T03:44:23;99969.97;;;4.86;100.00
40940;BME280;26666;50.156;7.700;2022-11-20T03:49:24;99966.22;;;4.78;100.00
40940;BME280;26666;50.156;7.700;2022-11-20T03:54:26;99960.66;;;4.82;100.00
40940;BME280;26666;50.156;7.700;2022-11-20T03:59:27;99956.56;;;5.04;100.00
40940;BME280;26666;50.156;7.700;2022-11-20T04:04:29;99967.38;;;5.12;100.00
40940;BME280;26666;50.156;7.700;2022-11-20T04:09:30;99964.88;;;4.85;100.00
40940;BME280;26666;50.156;7.700;2022-11-20T04:14:32;99966.31;;;4.63;100.00
40940;BME280;26666;50.156;7.700;2022-11-20T04:19:33;99974.59;;;4.70;100.00
40940;BME280;26666;50.156;7.700;2022-11-20T04:24:35;99964.16;;;4.83;100.00
40940;BME280;26666;50.156;7.700;2022-11-20T04:29:36;99961.81;;;4.65;100.00
40940;BME280;26666;50.156;7.700;2022-11-20T04:34:37;99955.97;;;4.87;100.00
40940;BME280;26666;50.156;7.700;2022-11-20T04:39:39;99954.28;;;4.86;100.00
40940;BME280;26666;50.156;7.700;2022-11-20T04:44:40;99946.13;;;4.91;100.00
40940;BME280;26666;50.156;7.700;2022-11-20T04:49:42;99948.31;;;4.84;100.00
40940;BME280;26666;50.156;7.700;2022-11-20T04:54:43;99948.31;;;4.97;100.00
40940;BME280;26666;50.156;7.700;2022-11-20T04:59:45;99950.31;;;4.81;100.00
40940;BME280;26666;50.156;7.700;2022-11-20T05:04:47;99961.28;;;4.60;100.00
40940;BME280;26666;50.156;7.700;2022-11-20T05:09:48;99951.88;;;4.83;100.00
40940;BME280;26666;50.156;7.700;2022-11-20T05:14:50;99957.66;;;4.88;100.00
40940;BME280;26666;50.156;7.700;2022-11-20T05:19:51;99954.59;;;4.82;100.00
40940;BME280;26666;50.156;7.700;2022-11-20T05:24:53;99953.88;;;4.80;100.00
40940;BME280;26666;50.156;7.700;2022-11-20T05:29:55;99945.81;;;5.08;100.00
40940;BME280;26666;50.156;7.700;2022-11-20T05:34:56;99962.44;;;5.20;100.00
40940;BME280;26666;50.156;7.700;2022-11-20T05:39:58;99950.50;;;5.16;100.00
40940;BME280;26666;50.156;7.700;2022-11-20T05:45:00;99945.81;;;4.96;100.00
40940;BME280;26666;50.156;7.700;2022-11-20T05:50:02;99946.34;;;5.01;100.00
40940;BME280;26666;50.156;7.700;2022-11-20T05:55:04;99945.91;;;4.94;100.00
40940;BME280;26666;50.156;7.700;2022-11-20T06:00:06;99942.34;;;4.95;100.00
40940;BME280;26666;50.156;7.700;2022-11-20T06:05:08;99937.31;;;5.05;100.00
40940;BME280;26666;50.156;7.700;2022-11-20T06:10:09;99950.28;;;5.19;100.00
40940;BME280;26666;50.156;7.700;2022-11-20T06:15:11;99948.81;;;5.15;100.00
40940;BME280;26666;50.156;7.700;2022-11-20T06:20:13;99948.19;;;5.24;100.00
40940;BME280;26666;50.156;7.700;2022-11-20T06:25:14;99945.78;;;5.21;100.00
40940;BME280;26666;50.156;7.700;2022-11-20T06:30:16;99947.03;;;5.28;100.00
40940;BME280;26666;50.156;7.700;2022-11-20T06:35:17;99949.34;;;5.20;100.00
40940;BME280;26666;50.156;7.700;2022-11-20T06:40:18;99945.47;;;5.13;100.00
40940;BME280;26666;50.156;7.700;2022-11-20T06:45:21;99940.13;;;5.14;100.00
40940;BME280;26666;50.156;7.700;2022-11-20T06:50:22;99953.34;;;5.13;100.00
40940;BME280;26666;50.156;7.700;2022-11-20T06:55:24;99961.00;;;4.90;100.00
40940;BME280;26666;50.156;7.700;2022-11-20T07:00:25;99959.00;;;5.07;100.00
40940;BME280;26666;50.156;7.700;2022-11-20T07:05:26;99964.56;;;5.02;100.00
40940;BME280;26666;50.156;7.700;2022-11-20T07:10:28;99964.22;;;5.07;100.00
40940;BME280;26666;50.156;7.700;2022-11-20T07:15:30;99964.56;;;4.89;100.00
40940;BME280;26666;50.156;7.700;2022-11-20T07:20:31;99975.03;;;5.02;100.00
40940;BME280;26666;50.156;7.700;2022-11-20T07:25:33;99969.56;;;5.05;100.00
40940;BME280;26666;50.156;7.700;2022-11-20T07:30:34;99972.41;;;5.15;100.00
40940;BME280;26666;50.156;7.700;2022-11-20T07:35:36;99975.53;;;5.20;100.00
40940;BME280;26666;50.156;7.700;2022-11-20T07:40:37;99980.78;;;5.20;100.00
40940;BME280;26666;50.156;7.700;2022-11-20T07:45:39;99988.00;;;5.29;100.00
40940;BME280;26666;50.156;7.700;2022-11-20T07:50:40;99993.75;;;5.34;100.00
40940;BME280;26666;50.156;7.700;2022-11-20T07:55:42;99997.97;;;5.24;100.00
40940;BME280;26666;50.156;7.700;2022-11-20T08:00:43;99999.13;;;5.20;100.00
40940;BME280;26666;50.156;7.700;2022-11-20T08:05:45;100003.72;;;5.29;100.00
40940;BME280;26666;50.156;7.700;2022-11-20T08:10:46;100001.63;;;5.34;100.00
40940;BME280;26666;50.156;7.700;2022-11-20T08:15:49;100006.56;;;5.39;100.00
40940;BME280;26666;50.156;7.700;2022-11-20T08:20:51;100017.13;;;5.38;100.00
40940;BME280;26666;50.156;7.700;2022-11-20T08:25:52;100017.44;;;5.33;100.00
40940;BME280;26666;50.156;7.700;2022-11-20T08:30:59;100011.84;;;5.63;100.00
40940;BME280;26666;50.156;7.700;2022-11-20T08:36:02;100022.97;;;5.67;100.00
40940;BME280;26666;50.156;7.700;2022-11-20T08:41:05;100026.75;;;5.50;100.00
40940;BME280;26666;50.156;7.700;2022-11-20T08:46:07;100013.59;;;5.76;100.00
40940;BME280;26666;50.156;7.700;2022-11-20T08:51:08;100025.44;;;5.81;100.00
40940;BME280;26666;50.156;7.700;2022-11-20T08:56:10;100021.25;;;5.79;100.00
40940;BME280;26666;50.156;7.700;2022-11-20T09:01:11;100018.09;;;5.73;100.00
40940;BME280;26666;50.156;7.700;2022-11-20T09:06:13;100027.31;;;5.92;100.00
40940;BME280;26666;50.156;7.700;2022-11-20T09:11:15;100031.94;;;6.01;100.00
40940;BME280;26666;50.156;7.700;2022-11-20T09:16:16;100023.44;;;5.98;100.00
40940;BME280;26666;50.156;7.700;2022-11-20T09:21:18;100026.78;;;6.24;100.00
40940;BME280;26666;50.156;7.700;2022-11-20T09:26:19;100021.59;;;6.35;100.00
40940;BME280;26666;50.156;7.700;2022-11-20T09:31:23;100021.66;;;6.22;100.00
40940;BME280;26666;50.156;7.700;2022-11-20T09:36:24;100027.53;;;6.02;100.00
40940;BME280;26666;50.156;7.700;2022-11-20T09:47:01;100022.56;;;6.10;100.00
40940;BME280;26666;50.156;7.700;2022-11-20T09:52:33;100011.41;;;6.19;100.00
40940;BME280;26666;50.156;7.700;2022-11-20T09:57:41;100007.72;;;6.22;100.00
40940;BME280;26666;50.156;7.700;2022-11-20T10:02:52;100004.56;;;6.17;100.00
40940;BME280;26666;50.156;7.700;2022-11-20T10:29:14;99979.66;;;6.46;100.00
40940;BME280;26666;50.156;7.700;2022-11-20T10:34:24;99969.03;;;6.37;100.00
40940;BME280;26666;50.156;7.700;2022-11-20T10:39:44;99968.25;;;6.59;100.00
40940;BME280;26666;50.156;7.700;2022-11-20T10:44:55;99970.41;;;6.65;100.00
40940;BME280;26666;50.156;7.700;2022-11-20T10:50:10;99963.31;;;6.89;100.00
40940;BME280;26666;50.156;7.700;2022-11-20T11:00:19;99952.41;;;6.83;100.00
40940;BME280;26666;50.156;7.700;2022-11-20T11:05:45;99946.00;;;6.98;100.00
40940;BME280;26666;50.156;7.700;2022-11-20T11:10:55;99936.91;;;7.02;100.00
40940;BME280;26666;50.156;7.700;2022-11-20T11:15:57;99926.31;;;7.15;100.00
40940;BME280;26666;50.156;7.700;2022-11-20T11:21:01;99924.38;;;7.28;100.00
40940;BME280;26666;50.156;7.700;2022-11-20T11:26:06;99919.25;;;7.27;100.00
40940;BME280;26666;50.156;7.700;2022-11-20T11:31:07;99904.78;;;7.33;100.00
40940;BME280;26666;50.156;7.700;2022-11-20T11:36:22;99900.25;;;7.35;100.00
40940;BME280;26666;50.156;7.700;2022-11-20T11:41:28;99899.03;;;7.39;100.00
40940;BME280;26666;50.156;7.700;2022-11-20T11:46:33;99890.06;;;7.53;100.00
40940;BME280;26666;50.156;7.700;2022-11-20T11:51:40;99889.00;;;7.55;100.00
40940;BME280;26666;50.156;7.700;2022-11-20T11:56:43;99880.13;;;7.56;100.00
40940;BME280;26666;50.156;7.700;2022-11-20T12:01:52;99873.44;;;7.63;100.00
40940;BME280;26666;50.156;7.700;2022-11-20T12:07:10;99862.59;;;7.78;100.00
40940;BME280;26666;50.156;7.700;2022-11-20T12:12:36;99870.88;;;7.73;100.00
40940;BME280;26666;50.156;7.700;2022-11-20T12:17:40;99856.53;;;7.77;100.00
40940;BME280;26666;50.156;7.700;2022-11-20T12:22:48;99852.91;;;7.78;100.00
40940;BME280;26666;50.156;7.700;2022-11-20T12:38:43;99823.56;;;7.94;100.00
40940;BME280;26666;50.156;7.700;2022-11-20T12:44:03;99819.38;;;7.92;100.00
40940;BME280;26666;50.156;7.700;2022-11-20T12:49:42;99815.03;;;7.81;100.00
40940;BME280;26666;50.156;7.700;2022-11-20T12:55:08;99802.31;;;7.65;100.00
40940;BME280;26666;50.156;7.700;2022-11-20T13:00:20;99800.63;;;7.64;100.00
40940;BME280;26666;50.156;7.700;2022-11-20T13:05:57;99796.63;;;7.81;100.00
40940;BME280;26666;50.156;7.700;2022-11-20T13:16:10;99782.44;;;7.93;100.00
40940;BME280;26666;50.156;7.700;2022-11-20T13:21:34;99781.16;;;8.08;100.00
40940;BME280;26666;50.156;7.700;2022-11-20T13:26:36;99777.34;;;8.01;100.00
40940;BME280;26666;50.156;7.700;2022-11-20T13:31:43;99778.13;;;8.13;100.00
40940;BME280;26666;50.156;7.700;2022-11-20T13:36:50;99770.38;;;8.12;100.00
40940;BME280;26666;50.156;7.700;2022-11-20T13:42:00;99767.94;;;8.20;100.00
40940;BME280;26666;50.156;7.700;2022-11-20T13:47:02;99754.06;;;8.18;100.00
40940;BME280;26666;50.156;7.700;2022-11-20T14:02:41;99743.00;;;8.24;100.00
40940;BME280;26666;50.156;7.700;2022-11-20T14:07:45;99732.41;;;8.35;100.00
40940;BME280;26666;50.156;7.700;2022-11-20T14:12:46;99730.91;;;8.42;100.00
40940;BME280;26666;50.156;7.700;2022-11-20T14:17:48;99724.63;;;8.34;100.00
40940;BME280;26666;50.156;7.700;2022-11-20T14:22:49;99719.38;;;8.34;100.00
40940;BME280;26666;50.156;7.700;2022-11-20T14:28:02;99715.50;;;8.38;100.00
40940;BME280;26666;50.156;7.700;2022-11-20T14:33:04;99707.22;;;8.42;100.00
40940;BME280;26666;50.156;7.700;2022-11-20T14:38:09;99704.72;;;8.41;100.00
40940;BME280;26666;50.156;7.700;2022-11-20T14:43:23;99708.72;;;8.35;100.00
40940;BME280;26666;50.156;7.700;2022-11-20T14:48:36;99700.66;;;8.27;100.00
40940;BME280;26666;50.156;7.700;2022-11-20T14:53:39;99697.03;;;8.28;100.00
40940;BME280;26666;50.156;7.700;2022-11-20T14:58:40;99680.53;;;8.26;100.00
40940;BME280;26666;50.156;7.700;2022-11-20T15:03:42;99678.88;;;8.25;100.00
40940;BME280;26666;50.156;7.700;2022-11-20T15:08:53;99677.22;;;8.24;100.00
40940;BME280;26666;50.156;7.700;2022-11-20T15:13:55;99681.16;;;8.08;100.00
40940;BME280;26666;50.156;7.700;2022-11-20T15:18:56;99683.78;;;8.08;100.00
40940;BME280;26666;50.156;7.700;2022-11-20T15:23:58;99673.63;;;7.94;100.00
40940;BME280;26666;50.156;7.700;2022-11-20T15:28:59;99671.69;;;7.96;100.00
40940;BME280;26666;50.156;7.700;2022-11-20T15:34:01;99664.50;;;7.98;100.00
40940;BME280;26666;50.156;7.700;2022-11-20T15:39:02;99661.19;;;7.96;100.00
40940;BME280;26666;50.156;7.700;2022-11-20T15:44:04;99668.63;;;7.91;100.00
40940;BME280;26666;50.156;7.700;2022-11-20T15:49:11;99662.78;;;7.87;100.00
40940;BME280;26666;50.156;7.700;2022-11-20T15:54:15;99648.41;;;7.92;100.00
40940;BME280;26666;50.156;7.700;2022-11-20T15:59:17;99637.34;;;7.88;100.00
40940;BME280;26666;50.156;7.700;2022-11-20T16:04:19;99631.78;;;7.91;100.00
40940;BME280;26666;50.156;7.700;2022-11-20T16:09:21;99624.47;;;7.95;100.00
40940;BME280;26666;50.156;7.700;2022-11-20T16:14:22;99632.31;;;7.85;100.00
40940;BME280;26666;50.156;7.700;2022-11-20T16:19:24;99622.91;;;7.82;100.00
40940;BME280;26666;50.156;7.700;2022-11-20T16:24:26;99605.53;;;7.70;100.00
40940;BME280;26666;50.156;7.700;2022-11-20T16:29:27;99596.16;;;7.77;100.00
40940;BME280;26666;50.156;7.700;2022-11-20T16:34:28;99593.72;;;7.64;100.00
40940;BME280;26666;50.156;7.700;2022-11-20T16:39:30;99583.31;;;7.84;100.00
40940;BME280;26666;50.156;7.700;2022-11-20T16:44:31;99574.31;;;7.77;100.00
40940;BME280;26666;50.156;7.700;2022-11-20T16:49:33;99560.63;;;7.83;100.00
40940;BME280;26666;50.156;7.700;2022-11-20T16:54:34;99545.78;;;7.82;100.00
40940;BME280;26666;50.156;7.700;2022-11-20T16:59:36;99543.69;;;7.76;100.00
40940;BME280;26666;50.156;7.700;2022-11-20T17:04:37;99540.94;;;7.77;100.00
40940;BME280;26666;50.156;7.700;2022-11-20T17:09:39;99533.34;;;7.94;100.00
40940;BME280;26666;50.156;7.700;2022-11-20T17:14:41;99541.78;;;7.87;100.00
40940;BME280;26666;50.156;7.700;2022-11-20T17:19:42;99533.50;;;7.82;100.00
40940;BME280;26666;50.156;7.700;2022-11-20T17:24:44;99525.06;;;7.88;100.00
40940;BME280;26666;50.156;7.700;2022-11-20T17:29:45;99519.91;;;7.77;100.00
40940;BME280;26666;50.156;7.700;2022-11-20T17:34:46;99504.94;;;7.78;100.00
40940;BME280;26666;50.156;7.700;2022-11-20T17:39:48;99508.25;;;7.80;100.00
40940;BME280;26666;50.156;7.700;2022-11-20T17:44:49;99502.19;;;7.79;100.00
40940;BME280;26666;50.156;7.700;2022-11-20T17:49:51;99498.28;;;7.74;100.00
40940;BME280;26666;50.156;7.700;2022-11-20T17:54:52;99494.13;;;7.71;100.00
40940;BME280;26666;50.156;7.700;2022-11-20T17:59:54;99486.97;;;7.83;100.00
40940;BME280;26666;50.156;7.700;2022-11-20T18:04:55;99485.16;;;7.83;100.00
40940;BME280;26666;50.156;7.700;2022-11-20T18:09:57;99492.56;;;7.59;100.00
40940;BME280;26666;50.156;7.700;2022-11-20T18:14:58;99499.56;;;7.79;100.00
40940;BME280;26666;50.156;7.700;2022-11-20T18:19:59;99495.69;;;7.83;100.00
40940;BME280;26666;50.156;7.700;2022-11-20T18:25:21;99494.84;;;7.83;100.00
40940;BME280;26666;50.156;7.700;2022-11-20T18:30:22;99487.31;;;7.68;100.00
40940;BME280;26666;50.156;7.700;2022-11-20T18:35:25;99474.72;;;7.62;100.00
40940;BME280;26666;50.156;7.700;2022-11-20T18:40:27;99457.88;;;7.65;100.00
40940;BME280;26666;50.156;7.700;2022-11-20T18:45:28;99456.63;;;7.69;100.00
40940;BME280;26666;50.156;7.700;2022-11-20T18:50:30;99455.63;;;7.60;100.00
40940;BME280;26666;50.156;7.700;2022-11-20T18:55:31;99442.56;;;7.49;100.00
40940;BME280;26666;50.156;7.700;2022-11-20T19:00:33;99446.88;;;7.50;100.00
40940;BME280;26666;50.156;7.700;2022-11-20T19:05:35;99437.63;;;7.56;100.00
40940;BME280;26666;50.156;7.700;2022-11-20T19:10:36;99424.63;;;7.54;100.00
40940;BME280;26666;50.156;7.700;2022-11-20T19:15:38;99410.50;;;7.45;100.00
40940;BME280;26666;50.156;7.700;2022-11-20T19:20:39;99414.91;;;7.45;100.00
40940;BME280;26666;50.156;7.700;2022-11-20T19:25:41;99412.97;;;7.47;100.00
40940;BME280;26666;50.156;7.700;2022-11-20T19:30:42;99411.88;;;7.40;100.00
40940;BME280;26666;50.156;7.700;2022-11-20T19:35:44;99413.78;;;7.38;100.00
40940;BME280;26666;50.156;7.700;2022-11-20T19:40:45;99392.06;;;7.36;100.00
40940;BME280;26666;50.156;7.700;2022-11-20T19:45:47;99389.53;;;7.24;100.00
40940;BME280;26666;50.156;7.700;2022-11-20T19:50:48;99391.22;;;7.35;100.00
40940;BME280;26666;50.156;7.700;2022-11-20T19:55:57;99384.69;;;7.20;100.00
40940;BME280;26666;50.156;7.700;2022-11-20T20:01:14;99376.94;;;7.18;100.00
40940;BME280;26666;50.156;7.700;2022-11-20T20:06:18;99376.09;;;7.18;100.00
40940;BME280;26666;50.156;7.700;2022-11-20T20:11:21;99366.16;;;7.21;100.00
40940;BME280;26666;50.156;7.700;2022-11-20T20:16:24;99382.75;;;7.22;100.00
40940;BME280;26666;50.156;7.700;2022-11-20T20:21:27;99389.38;;;7.16;100.00
40940;BME280;26666;50.156;7.700;2022-11-20T20:26:30;99389.38;;;7.16;100.00
40940;BME280;26666;50.156;7.700;2022-11-20T20:31:32;99390.59;;;7.12;100.00
40940;BME280;26666;50.156;7.700;2022-11-20T20:36:34;99392.75;;;6.97;100.00
40940;BME280;26666;50.156;7.700;2022-11-20T20:41:36;99393.59;;;6.98;100.00
40940;BME280;26666;50.156;7.700;2022-11-20T20:46:39;99407.59;;;7.08;100.00
40940;BME280;26666;50.156;7.700;2022-11-20T20:51:41;99405.66;;;7.10;100.00
40940;BME280;26666;50.156;7.700;2022-11-20T20:56:43;99415.66;;;7.16;100.00
40940;BME280;26666;50.156;7.700;2022-11-20T21:01:44;99419.00;;;7.18;100.00
40940;BME280;26666;50.156;7.700;2022-11-20T21:06:46;99429.94;;;7.33;100.00
40940;BME280;26666;50.156;7.700;2022-11-20T21:11:47;99429.03;;;7.44;100.00
40940;BME280;26666;50.156;7.700;2022-11-20T21:16:49;99446.88;;;7.50;100.00
40940;BME280;26666;50.156;7.700;2022-11-20T21:21:50;99429.19;;;7.52;100.00
40940;BME280;26666;50.156;7.700;2022-11-20T21:26:52;99397.09;;;7.68;100.00
40940;BME280;26666;50.156;7.700;2022-11-20T21:31:54;99407.75;;;7.66;100.00
40940;BME280;26666;50.156;7.700;2022-11-20T21:36:56;99408.56;;;7.47;100.00
40940;BME280;26666;50.156;7.700;2022-11-20T21:41:57;99421.84;;;7.46;100.00
40940;BME280;26666;50.156;7.700;2022-11-20T21:46:58;99416.56;;;7.46;100.00
40940;BME280;26666;50.156;7.700;2022-11-20T21:52:00;99398.94;;;7.27;100.00
40940;BME280;26666;50.156;7.700;2022-11-20T21:57:01;99389.72;;;7.42;100.00
40940;BME280;26666;50.156;7.700;2022-11-20T22:02:03;99390.53;;;7.33;100.00
40940;BME280;26666;50.156;7.700;2022-11-20T22:07:04;99399.06;;;7.25;100.00
40940;BME280;26666;50.156;7.700;2022-11-20T22:12:06;99396.72;;;7.22;100.00
40940;BME280;26666;50.156;7.700;2022-11-20T22:17:12;99406.63;;;7.09;100.00
40940;BME280;26666;50.156;7.700;2022-11-20T22:22:13;99392.81;;;7.07;100.00
40940;BME280;26666;50.156;7.700;2022-11-20T22:27:15;99404.47;;;7.14;100.00
40940;BME280;26666;50.156;7.700;2022-11-20T22:32:16;99402.69;;;7.24;100.00
40940;BME280;26666;50.156;7.700;2022-11-20T22:37:17;99408.22;;;7.31;100.00
40940;BME280;26666;50.156;7.700;2022-11-20T22:42:19;99419.56;;;7.31;100.00
40940;BME280;26666;50.156;7.700;2022-11-20T22:47:20;99424.66;;;7.23;100.00
40940;BME280;26666;50.156;7.700;2022-11-20T22:52:22;99415.13;;;7.22;100.00
40940;BME280;26666;50.156;7.700;2022-11-20T22:57:23;99426.16;;;7.16;100.00
40940;BME280;26666;50.156;7.700;2022-11-20T23:02:25;99434.91;;;6.96;100.00
40940;BME280;26666;50.156;7.700;2022-11-20T23:07:26;99423.78;;;6.82;100.00
40940;BME280;26666;50.156;7.700;2022-11-20T23:12:28;99434.28;;;6.82;100.00
40940;BME280;26666;50.156;7.700;2022-11-20T23:17:29;99437.88;;;6.81;100.00
40940;BME280;26666;50.156;7.700;2022-11-20T23:22:31;99437.03;;;6.81;100.00
40940;BME280;26666;50.156;7.700;2022-11-20T23:27:32;99434.09;;;6.74;100.00
40940;BME280;26666;50.156;7.700;2022-11-20T23:32:34;99437.25;;;6.68;100.00
40940;BME280;26666;50.156;7.700;2022-11-20T23:37:35;99435.00;;;6.63;100.00
40940;BME280;26666;50.156;7.700;2022-11-20T23:42:37;99445.31;;;6.55;100.00
40940;BME280;26666;50.156;7.700;2022-11-20T23:47:38;99443.78;;;6.53;100.00
40940;BME280;26666;50.156;7.700;2022-11-20T23:52:39;99426.16;;;6.43;100.00
40940;BME280;26666;50.156;7.700;2022-11-20T23:57:41;99430.78;;;6.51;100.00
